createdAt,value
2023-05-20T00:00:02.782Z,649.00
2023-05-20T00:01:02.871Z,647.00
2023-05-20T00:02:04.935Z,648.00
2023-05-20T00:03:03.095Z,647.00
2023-05-20T00:04:03.305Z,648.00
2023-05-20T00:05:03.298Z,647.00
2023-05-20T00:06:03.268Z,649.00
2023-05-20T00:07:03.349Z,649.00
2023-05-20T00:08:03.418Z,648.00
2023-05-20T00:09:03.503Z,650.00
2023-05-20T00:10:03.578Z,650.00
2023-05-20T00:11:03.669Z,651.00
2023-05-20T00:12:03.771Z,651.00
2023-05-20T00:13:03.828Z,649.00
2023-05-20T00:14:03.908Z,655.00
2023-05-20T00:15:03.994Z,655.00
2023-05-20T00:16:04.111Z,655.00
2023-05-20T00:17:04.195Z,655.00
2023-05-20T00:18:04.389Z,657.00
2023-05-20T00:19:04.367Z,659.00
2023-05-20T00:20:06.408Z,659.00
2023-05-20T00:21:04.494Z,659.00
2023-05-20T00:22:04.561Z,658.00
2023-05-20T00:23:04.648Z,655.00
2023-05-20T00:24:04.723Z,658.00
2023-05-20T00:25:04.874Z,657.00
2023-05-20T00:26:05.756Z,657.00
2023-05-20T00:27:04.969Z,657.00
2023-05-20T00:28:05.044Z,658.00
2023-05-20T00:29:05.896Z,656.00
2023-05-20T00:30:05.194Z,658.00
2023-05-20T00:31:05.281Z,658.00
2023-05-20T00:32:05.387Z,658.00
2023-05-20T00:33:05.536Z,659.00
2023-05-20T00:34:05.541Z,659.00
2023-05-20T00:35:06.417Z,657.00
2023-05-20T00:36:05.681Z,653.00
2023-05-20T00:37:05.777Z,654.00
2023-05-20T00:38:05.858Z,654.00
2023-05-20T00:39:05.935Z,654.00
2023-05-20T00:40:06.959Z,654.00
2023-05-20T00:41:06.133Z,651.00
2023-05-20T00:42:06.181Z,652.00
2023-05-20T00:43:06.294Z,649.00
2023-05-20T00:44:06.371Z,649.00
2023-05-20T00:45:06.458Z,648.00
2023-05-20T00:46:07.505Z,647.00
2023-05-20T00:47:06.623Z,647.00
2023-05-20T00:48:06.910Z,646.00
2023-05-20T00:49:06.823Z,647.00
2023-05-20T00:50:06.896Z,646.00
2023-05-20T00:51:07.131Z,646.00
2023-05-20T00:52:07.071Z,647.00
2023-05-20T00:53:07.210Z,650.00
2023-05-20T00:54:07.247Z,649.00
2023-05-20T00:55:07.323Z,646.00
2023-05-20T00:56:07.413Z,646.00
2023-05-20T00:57:07.514Z,646.00
2023-05-20T00:58:07.597Z,645.00
2023-05-20T00:59:09.391Z,646.00
2023-05-20T01:00:07.781Z,647.00
2023-05-20T01:01:08.053Z,645.00
2023-05-20T01:02:08.012Z,645.00
2023-05-20T01:03:08.208Z,644.00
2023-05-20T01:04:08.122Z,650.00
2023-05-20T01:05:08.217Z,654.00
2023-05-20T01:06:08.300Z,653.00
2023-05-20T01:07:08.390Z,654.00
2023-05-20T01:08:09.334Z,654.00
2023-05-20T01:09:08.568Z,651.00
2023-05-20T01:10:08.655Z,649.00
2023-05-20T01:11:08.738Z,649.00
2023-05-20T01:12:10.953Z,650.00
2023-05-20T01:13:08.897Z,654.00
2023-05-20T01:14:08.972Z,650.00
2023-05-20T01:15:09.052Z,651.00
2023-05-20T01:16:09.179Z,651.00
2023-05-20T01:17:09.768Z,651.00
2023-05-20T01:18:09.363Z,650.00
2023-05-20T01:19:09.503Z,646.00
2023-05-20T01:20:09.506Z,645.00
2023-05-20T01:21:10.363Z,645.00
2023-05-20T01:22:09.687Z,645.00
2023-05-20T01:23:09.776Z,647.00
2023-05-20T01:24:09.844Z,651.00
2023-05-20T01:25:09.931Z,651.00
2023-05-20T01:26:10.926Z,650.00
2023-05-20T01:27:10.111Z,652.00
2023-05-20T01:28:10.202Z,652.00
2023-05-20T01:29:11.420Z,657.00
2023-05-20T01:30:10.342Z,653.00
2023-05-20T01:31:10.503Z,651.00
2023-05-20T01:32:10.526Z,649.00
2023-05-20T01:33:10.674Z,651.00
2023-05-20T01:34:10.681Z,652.00
2023-05-20T01:35:10.763Z,655.00
2023-05-20T01:36:10.847Z,654.00
2023-05-20T01:37:10.922Z,654.00
2023-05-20T01:38:11.008Z,654.00
2023-05-20T01:39:11.075Z,657.00
2023-05-20T01:40:11.168Z,655.00
2023-05-20T01:41:12.959Z,658.00
2023-05-20T01:42:11.349Z,658.00
2023-05-20T01:43:11.410Z,656.00
2023-05-20T01:44:11.499Z,654.00
2023-05-20T01:45:11.600Z,653.00
2023-05-20T01:46:11.685Z,654.00
2023-05-20T01:47:12.399Z,654.00
2023-05-20T01:48:11.904Z,655.00
2023-05-20T01:49:11.922Z,655.00
2023-05-20T01:50:12.002Z,653.00
2023-05-20T01:51:12.092Z,655.00
2023-05-20T01:52:12.186Z,656.00
2023-05-20T01:53:12.285Z,654.00
2023-05-20T01:54:13.457Z,655.00
2023-05-20T01:55:12.469Z,654.00
2023-05-20T01:56:12.529Z,649.00
2023-05-20T01:57:12.624Z,650.00
2023-05-20T01:58:12.710Z,651.00
2023-05-20T01:59:12.778Z,651.00
2023-05-20T02:00:12.861Z,654.00
2023-05-20T02:01:12.949Z,651.00
2023-05-20T02:02:13.011Z,648.00
2023-05-20T02:03:13.087Z,651.00
2023-05-20T02:04:13.119Z,653.00
2023-05-20T02:05:13.211Z,654.00
2023-05-20T02:06:13.297Z,655.00
2023-05-20T02:07:15.419Z,655.00
2023-05-20T02:08:13.469Z,653.00
2023-05-20T02:09:13.544Z,653.00
2023-05-20T02:10:13.636Z,653.00
2023-05-20T02:11:13.774Z,650.00
2023-05-20T02:12:13.822Z,652.00
2023-05-20T02:13:13.903Z,650.00
2023-05-20T02:14:13.988Z,651.00
2023-05-20T02:15:14.079Z,651.00
2023-05-20T02:16:14.222Z,653.00
2023-05-20T02:17:14.229Z,651.00
2023-05-20T02:18:14.354Z,652.00
2023-05-20T02:19:14.417Z,650.00
2023-05-20T02:20:16.511Z,650.00
2023-05-20T02:21:14.557Z,650.00
2023-05-20T02:22:14.620Z,649.00
2023-05-20T02:23:14.720Z,647.00
2023-05-20T02:24:14.839Z,644.00
2023-05-20T02:25:14.905Z,643.00
2023-05-20T02:26:14.977Z,644.00
2023-05-20T02:27:15.085Z,648.00
2023-05-20T02:28:15.165Z,644.00
2023-05-20T02:29:15.248Z,642.00
2023-05-20T02:30:15.340Z,643.00
2023-05-20T02:31:15.439Z,640.00
2023-05-20T02:32:16.486Z,637.00
2023-05-20T02:33:15.898Z,635.00
2023-05-20T02:34:15.721Z,637.00
2023-05-20T02:35:15.757Z,637.00
2023-05-20T02:36:15.854Z,638.00
2023-05-20T02:37:15.956Z,637.00
2023-05-20T02:38:16.019Z,637.00
2023-05-20T02:39:16.931Z,639.00
2023-05-20T02:40:16.181Z,639.00
2023-05-20T02:41:16.292Z,640.00
2023-05-20T02:42:16.340Z,639.00
2023-05-20T02:43:16.425Z,637.00
2023-05-20T02:44:16.510Z,636.00
2023-05-20T02:45:16.600Z,634.00
2023-05-20T02:46:16.699Z,631.00
2023-05-20T02:47:17.693Z,630.00
2023-05-20T02:48:16.704Z,631.00
2023-05-20T02:49:16.726Z,627.00
2023-05-20T02:50:18.486Z,627.00
2023-05-20T02:51:16.766Z,634.00
2023-05-20T02:52:16.808Z,636.00
2023-05-20T02:53:16.797Z,635.00
2023-05-20T02:54:17.004Z,629.00
2023-05-20T02:55:16.822Z,627.00
2023-05-20T02:56:17.088Z,625.00
2023-05-20T02:57:16.966Z,629.00
2023-05-20T02:58:17.040Z,632.00
2023-05-20T02:59:17.123Z,633.00
2023-05-20T03:00:17.182Z,634.00
2023-05-20T03:01:17.322Z,632.00
2023-05-20T03:02:17.336Z,627.00
2023-05-20T03:03:17.423Z,634.00
2023-05-20T03:04:18.049Z,635.00
2023-05-20T03:05:17.628Z,636.00
2023-05-20T03:06:17.671Z,636.00
2023-05-20T03:07:17.764Z,639.00
2023-05-20T03:08:17.838Z,639.00
2023-05-20T03:09:17.916Z,635.00
2023-05-20T03:10:18.012Z,637.00
2023-05-20T03:11:18.105Z,637.00
2023-05-20T03:12:18.204Z,637.00
2023-05-20T03:13:18.271Z,638.00
2023-05-20T03:14:18.367Z,638.00
2023-05-20T03:15:18.441Z,637.00
2023-05-20T03:16:18.684Z,636.00
2023-05-20T03:17:18.587Z,636.00
2023-05-20T03:18:18.674Z,636.00
2023-05-20T03:19:18.778Z,634.00
2023-05-20T03:20:20.501Z,630.00
2023-05-20T03:21:18.956Z,627.00
2023-05-20T03:22:18.998Z,632.00
2023-05-20T03:23:19.064Z,635.00
2023-05-20T03:24:19.147Z,634.00
2023-05-20T03:25:19.224Z,635.00
2023-05-20T03:26:19.338Z,632.00
2023-05-20T03:27:19.412Z,631.00
2023-05-20T03:28:19.514Z,631.00
2023-05-20T03:29:19.592Z,630.00
2023-05-20T03:30:21.483Z,632.00
2023-05-20T03:31:19.828Z,630.00
2023-05-20T03:32:19.884Z,632.00
2023-05-20T03:33:19.935Z,632.00
2023-05-20T03:34:20.010Z,631.00
2023-05-20T03:35:20.089Z,636.00
2023-05-20T03:36:20.196Z,634.00
2023-05-20T03:37:20.267Z,631.00
2023-05-20T03:38:20.357Z,630.00
2023-05-20T03:39:20.445Z,629.00
2023-05-20T03:40:21.467Z,626.00
2023-05-20T03:41:20.621Z,630.00
2023-05-20T03:42:20.707Z,630.00
2023-05-20T03:43:20.793Z,633.00
2023-05-20T03:44:20.886Z,633.00
2023-05-20T03:45:20.988Z,634.00
2023-05-20T03:46:21.154Z,634.00
2023-05-20T03:47:21.201Z,636.00
2023-05-20T03:48:21.261Z,637.00
2023-05-20T03:49:21.360Z,638.00
2023-05-20T03:50:21.448Z,638.00
2023-05-20T03:51:21.538Z,636.00
2023-05-20T03:52:21.644Z,637.00
2023-05-20T03:53:21.717Z,636.00
2023-05-20T03:54:23.503Z,636.00
2023-05-20T03:55:21.895Z,637.00
2023-05-20T03:56:22.007Z,634.00
2023-05-20T03:57:22.082Z,634.00
2023-05-20T03:58:22.180Z,634.00
2023-05-20T03:59:22.277Z,632.00
2023-05-20T04:00:22.347Z,634.00
2023-05-20T04:01:22.436Z,634.00
2023-05-20T04:02:22.560Z,634.00
2023-05-20T04:03:22.717Z,637.00
2023-05-20T04:04:22.899Z,634.00
2023-05-20T04:05:22.810Z,636.00
2023-05-20T04:06:22.891Z,634.00
2023-05-20T04:07:22.984Z,631.00
2023-05-20T04:08:23.071Z,632.00
2023-05-20T04:09:23.138Z,632.00
2023-05-20T04:10:23.219Z,633.00
2023-05-20T04:11:23.312Z,636.00
2023-05-20T04:12:23.392Z,631.00
2023-05-20T04:13:23.475Z,632.00
2023-05-20T04:14:23.575Z,632.00
2023-05-20T04:15:23.665Z,632.00
2023-05-20T04:16:23.803Z,633.00
2023-05-20T04:17:23.878Z,634.00
2023-05-20T04:18:23.942Z,634.00
2023-05-20T04:19:24.239Z,636.00
2023-05-20T04:20:24.126Z,634.00
2023-05-20T04:21:24.233Z,633.00
2023-05-20T04:22:24.329Z,631.00
2023-05-20T04:23:24.421Z,632.00
2023-05-20T04:24:24.507Z,637.00
2023-05-20T04:25:24.598Z,637.00
2023-05-20T04:26:24.685Z,633.00
2023-05-20T04:27:26.532Z,633.00
2023-05-20T04:28:24.875Z,632.00
2023-05-20T04:29:24.967Z,632.00
2023-05-20T04:30:25.057Z,630.00
2023-05-20T04:31:25.161Z,632.00
2023-05-20T04:32:25.287Z,633.00
2023-05-20T04:33:25.454Z,634.00
2023-05-20T04:34:25.417Z,629.00
2023-05-20T04:35:25.635Z,628.00
2023-05-20T04:36:25.614Z,630.00
2023-05-20T04:37:25.739Z,629.00
2023-05-20T04:38:26.985Z,632.00
2023-05-20T04:39:25.862Z,632.00
2023-05-20T04:40:25.942Z,630.00
2023-05-20T04:41:26.045Z,628.00
2023-05-20T04:42:26.134Z,629.00
2023-05-20T04:43:26.273Z,630.00
2023-05-20T04:44:26.306Z,629.00
2023-05-20T04:45:26.397Z,630.00
2023-05-20T04:46:26.521Z,628.00
2023-05-20T04:47:26.618Z,625.00
2023-05-20T04:48:26.688Z,622.00
2023-05-20T04:49:26.793Z,622.00
2023-05-20T04:50:26.893Z,625.00
2023-05-20T04:51:26.984Z,627.00
2023-05-20T04:52:27.079Z,625.00
2023-05-20T04:53:27.179Z,625.00
2023-05-20T04:54:29.048Z,625.00
2023-05-20T04:55:27.344Z,627.00
2023-05-20T04:56:27.422Z,626.00
2023-05-20T04:57:27.522Z,628.00
2023-05-20T04:58:28.027Z,629.00
2023-05-20T04:59:27.702Z,630.00
2023-05-20T05:00:27.773Z,630.00
2023-05-20T05:01:27.900Z,632.00
2023-05-20T05:02:27.974Z,632.00
2023-05-20T05:03:28.047Z,634.00
2023-05-20T05:04:28.150Z,633.00
2023-05-20T05:05:28.205Z,635.00
2023-05-20T05:06:28.292Z,633.00
2023-05-20T05:07:28.370Z,635.00
2023-05-20T05:08:28.443Z,636.00
2023-05-20T05:09:28.531Z,639.00
2023-05-20T05:10:28.616Z,638.00
2023-05-20T05:11:28.705Z,639.00
2023-05-20T05:12:28.785Z,638.00
2023-05-20T05:13:28.881Z,639.00
2023-05-20T05:14:28.959Z,638.00
2023-05-20T05:15:29.047Z,635.00
2023-05-20T05:16:29.241Z,632.00
2023-05-20T05:17:29.342Z,630.00
2023-05-20T05:18:29.313Z,629.00
2023-05-20T05:19:29.435Z,629.00
2023-05-20T05:20:29.507Z,630.00
2023-05-20T05:21:29.575Z,627.00
2023-05-20T05:22:31.385Z,631.00
2023-05-20T05:23:29.763Z,632.00
2023-05-20T05:24:29.868Z,630.00
2023-05-20T05:25:31.101Z,626.00
2023-05-20T05:26:30.036Z,635.00
2023-05-20T05:27:30.097Z,633.00
2023-05-20T05:28:30.188Z,632.00
2023-05-20T05:29:30.272Z,631.00
2023-05-20T05:30:30.362Z,631.00
2023-05-20T05:31:30.446Z,630.00
2023-05-20T05:32:30.610Z,631.00
2023-05-20T05:33:31.076Z,632.00
2023-05-20T05:34:30.714Z,632.00
2023-05-20T05:35:30.809Z,631.00
2023-05-20T05:36:30.879Z,630.00
2023-05-20T05:37:30.953Z,629.00
2023-05-20T05:38:31.051Z,628.00
2023-05-20T05:39:31.138Z,630.00
2023-05-20T05:40:31.201Z,630.00
2023-05-20T05:41:32.048Z,632.00
2023-05-20T05:42:31.382Z,632.00
2023-05-20T05:43:31.445Z,628.00
2023-05-20T05:44:31.514Z,626.00
2023-05-20T05:45:31.747Z,628.00
2023-05-20T05:46:31.743Z,630.00
2023-05-20T05:47:31.783Z,630.00
2023-05-20T05:48:31.806Z,631.00
2023-05-20T05:49:31.874Z,630.00
2023-05-20T05:50:31.954Z,628.00
2023-05-20T05:51:32.010Z,629.00
2023-05-20T05:52:32.078Z,631.00
2023-05-20T05:53:32.154Z,631.00
2023-05-20T05:54:32.202Z,631.00
2023-05-20T05:55:32.487Z,633.00
2023-05-20T05:56:32.331Z,632.00
2023-05-20T05:57:32.403Z,632.00
2023-05-20T05:58:33.564Z,629.00
2023-05-20T05:59:32.516Z,627.00
2023-05-20T06:00:32.594Z,626.00
2023-05-20T06:01:32.646Z,627.00
2023-05-20T06:02:32.807Z,625.00
2023-05-20T06:03:32.847Z,626.00
2023-05-20T06:04:32.906Z,628.00
2023-05-20T06:05:33.137Z,627.00
2023-05-20T06:06:32.972Z,628.00
2023-05-20T06:07:33.041Z,628.00
2023-05-20T06:08:33.081Z,628.00
2023-05-20T06:09:33.151Z,632.00
2023-05-20T06:10:33.217Z,635.00
2023-05-20T06:11:33.573Z,632.00
2023-05-20T06:12:33.345Z,633.00
2023-05-20T06:13:33.409Z,631.00
2023-05-20T06:14:33.467Z,633.00
2023-05-20T06:15:34.836Z,634.00
2023-05-20T06:16:33.614Z,636.00
2023-05-20T06:17:33.685Z,636.00
2023-05-20T06:18:33.847Z,631.00
2023-05-20T06:19:33.800Z,631.00
2023-05-20T06:20:33.819Z,631.00
2023-05-20T06:21:33.848Z,634.00
2023-05-20T06:22:33.882Z,633.00
2023-05-20T06:23:33.957Z,635.00
2023-05-20T06:24:33.989Z,632.00
2023-05-20T06:25:36.132Z,632.00
2023-05-20T06:26:34.098Z,633.00
2023-05-20T06:27:34.118Z,632.00
2023-05-20T06:28:34.232Z,630.00
2023-05-20T06:29:34.234Z,633.00
2023-05-20T06:30:34.234Z,635.00
2023-05-20T06:31:34.381Z,638.00
2023-05-20T06:32:34.983Z,635.00
2023-05-20T06:33:34.382Z,635.00
2023-05-20T06:34:34.425Z,634.00
2023-05-20T06:35:34.719Z,630.00
2023-05-20T06:36:34.501Z,632.00
2023-05-20T06:37:34.690Z,631.00
2023-05-20T06:38:34.613Z,635.00
2023-05-20T06:39:35.510Z,635.00
2023-05-20T06:40:34.669Z,635.00
2023-05-20T06:41:34.716Z,632.00
2023-05-20T06:42:34.753Z,632.00
2023-05-20T06:43:34.786Z,632.00
2023-05-20T06:44:34.812Z,633.00
2023-05-20T06:45:35.818Z,636.00
2023-05-20T06:46:34.912Z,633.00
2023-05-20T06:47:35.047Z,634.00
2023-05-20T06:48:34.965Z,632.00
2023-05-20T06:49:34.987Z,631.00
2023-05-20T06:50:35.015Z,631.00
2023-05-20T06:51:35.047Z,630.00
2023-05-20T06:52:36.070Z,631.00
2023-05-20T06:53:35.123Z,633.00
2023-05-20T06:54:35.167Z,634.00
2023-05-20T06:55:35.393Z,635.00
2023-05-20T06:56:35.222Z,633.00
2023-05-20T06:57:35.339Z,631.00
2023-05-20T06:58:35.295Z,633.00
2023-05-20T06:59:36.072Z,631.00
2023-05-20T07:00:35.351Z,632.00
2023-05-20T07:01:35.407Z,633.00
2023-05-20T07:02:35.450Z,634.00
2023-05-20T07:03:35.502Z,632.00
2023-05-20T07:04:35.471Z,629.00
2023-05-20T07:05:35.689Z,629.00
2023-05-20T07:06:35.557Z,630.00
2023-05-20T07:07:35.574Z,628.00
2023-05-20T07:08:35.611Z,627.00
2023-05-20T07:09:35.640Z,624.00
2023-05-20T07:10:35.862Z,624.00
2023-05-20T07:11:35.716Z,626.00
2023-05-20T07:12:36.989Z,625.00
2023-05-20T07:13:35.790Z,626.00
2023-05-20T07:14:35.815Z,627.00
2023-05-20T07:15:36.159Z,626.00
2023-05-20T07:16:37.675Z,626.00
2023-05-20T07:17:35.947Z,628.00
2023-05-20T07:18:35.941Z,626.00
2023-05-20T07:19:35.981Z,627.00
2023-05-20T07:20:36.015Z,630.00
2023-05-20T07:21:36.030Z,628.00
2023-05-20T07:22:37.031Z,624.00
2023-05-20T07:23:36.105Z,625.00
2023-05-20T07:24:37.040Z,626.00
2023-05-20T07:25:36.306Z,624.00
2023-05-20T07:26:36.291Z,624.00
2023-05-20T07:27:36.219Z,627.00
2023-05-20T07:28:36.256Z,627.00
2023-05-20T07:29:36.398Z,629.00
2023-05-20T07:30:36.319Z,630.00
2023-05-20T07:31:36.391Z,630.00
2023-05-20T07:32:36.444Z,630.00
2023-05-20T07:33:36.420Z,630.00
2023-05-20T07:34:36.527Z,626.00
2023-05-20T07:35:36.674Z,627.00
2023-05-20T07:36:36.498Z,627.00
2023-05-20T07:37:36.528Z,628.00
2023-05-20T07:38:36.567Z,624.00
2023-05-20T07:39:36.602Z,625.00
2023-05-20T07:40:36.701Z,629.00
2023-05-20T07:41:36.675Z,630.00
2023-05-20T07:42:37.595Z,629.00
2023-05-20T07:43:36.736Z,628.00
2023-05-20T07:44:36.785Z,629.00
2023-05-20T07:45:37.163Z,628.00
2023-05-20T07:46:36.874Z,628.00
2023-05-20T07:47:37.645Z,628.00
2023-05-20T07:48:36.892Z,627.00
2023-05-20T07:49:36.928Z,627.00
2023-05-20T07:50:36.956Z,626.00
2023-05-20T07:51:38.054Z,628.00
2023-05-20T07:52:51.911Z,626.00
2023-05-20T07:53:38.036Z,628.00
2023-05-20T07:54:37.048Z,632.00
2023-05-20T07:55:37.181Z,631.00
2023-05-20T07:56:38.064Z,631.00
2023-05-20T07:57:37.107Z,628.00
2023-05-20T07:58:37.109Z,630.00
2023-05-20T07:59:37.124Z,631.00
2023-05-20T08:00:37.135Z,630.00
2023-05-20T08:01:37.154Z,631.00
2023-05-20T08:02:37.245Z,632.00
2023-05-20T08:03:37.318Z,632.00
2023-05-20T08:04:37.331Z,632.00
2023-05-20T08:05:37.212Z,632.00
2023-05-20T08:06:37.220Z,629.00
2023-05-20T08:07:37.241Z,626.00
2023-05-20T08:08:37.253Z,631.00
2023-05-20T08:09:38.044Z,631.00
2023-05-20T08:10:37.324Z,632.00
2023-05-20T08:11:37.292Z,631.00
2023-05-20T08:12:37.314Z,630.00
2023-05-20T08:13:37.319Z,632.00
2023-05-20T08:14:37.329Z,630.00
2023-05-20T08:15:37.410Z,630.00
2023-05-20T08:16:37.435Z,630.00
2023-05-20T08:17:37.395Z,627.00
2023-05-20T08:18:37.386Z,628.00
2023-05-20T08:19:37.462Z,627.00
2023-05-20T08:20:37.421Z,625.00
2023-05-20T08:21:37.445Z,627.00
2023-05-20T08:22:37.529Z,625.00
2023-05-20T08:23:40.194Z,624.00
2023-05-20T08:24:37.481Z,625.00
2023-05-20T08:25:37.498Z,622.00
2023-05-20T08:26:37.519Z,622.00
2023-05-20T08:27:37.519Z,623.00
2023-05-20T08:28:38.613Z,624.00
2023-05-20T08:29:37.575Z,625.00
2023-05-20T08:30:37.578Z,625.00
2023-05-20T08:31:37.682Z,629.00
2023-05-20T08:32:37.682Z,629.00
2023-05-20T08:33:37.629Z,628.00
2023-05-20T08:34:37.648Z,629.00
2023-05-20T08:35:37.656Z,628.00
2023-05-20T08:36:37.685Z,627.00
2023-05-20T08:37:37.680Z,627.00
2023-05-20T08:38:37.692Z,625.00
2023-05-20T08:39:37.762Z,626.00
2023-05-20T08:40:37.707Z,625.00
2023-05-20T08:41:37.707Z,626.00
2023-05-20T08:42:37.731Z,628.00
2023-05-20T08:43:37.749Z,627.00
2023-05-20T08:44:38.564Z,631.00
2023-05-20T08:45:37.753Z,631.00
2023-05-20T08:46:37.787Z,630.00
2023-05-20T08:47:37.842Z,629.00
2023-05-20T08:48:37.811Z,629.00
2023-05-20T08:49:37.811Z,630.00
2023-05-20T08:50:37.823Z,631.00
2023-05-20T08:51:37.843Z,629.00
2023-05-20T08:52:37.856Z,628.00
2023-05-20T08:53:37.867Z,628.00
2023-05-20T08:54:38.568Z,630.00
2023-05-20T08:55:37.937Z,631.00
2023-05-20T08:56:37.894Z,630.00
2023-05-20T08:57:37.904Z,629.00
2023-05-20T08:58:37.919Z,630.00
2023-05-20T08:59:37.936Z,628.00
2023-05-20T09:00:38.630Z,627.00
2023-05-20T09:01:37.985Z,626.00
2023-05-20T09:02:38.017Z,626.00
2023-05-20T09:03:37.981Z,622.00
2023-05-20T09:04:38.031Z,623.00
2023-05-20T09:05:38.007Z,624.00
2023-05-20T09:06:38.024Z,627.00
2023-05-20T09:07:38.045Z,624.00
2023-05-20T09:08:38.047Z,621.00
2023-05-20T09:09:38.061Z,624.00
2023-05-20T09:10:38.878Z,621.00
2023-05-20T09:11:38.092Z,621.00
2023-05-20T09:12:38.106Z,623.00
2023-05-20T09:13:38.126Z,626.00
2023-05-20T09:14:38.127Z,627.00
2023-05-20T09:15:38.120Z,625.00
2023-05-20T09:16:38.189Z,623.00
2023-05-20T09:17:38.190Z,620.00
2023-05-20T09:18:38.163Z,620.00
2023-05-20T09:19:38.203Z,620.00
2023-05-20T09:20:38.192Z,619.00
2023-05-20T09:21:38.190Z,622.00
2023-05-20T09:22:38.199Z,620.00
2023-05-20T09:23:38.215Z,622.00
2023-05-20T09:24:38.218Z,621.00
2023-05-20T09:25:38.225Z,618.00
2023-05-20T09:26:38.235Z,619.00
2023-05-20T09:27:38.230Z,618.00
2023-05-20T09:28:38.283Z,619.00
2023-05-20T09:29:38.244Z,618.00
2023-05-20T09:30:38.308Z,617.00
2023-05-20T09:31:38.399Z,612.00
2023-05-20T09:32:38.420Z,608.00
2023-05-20T09:33:38.433Z,611.00
2023-05-20T09:34:38.467Z,613.00
2023-05-20T09:35:38.552Z,614.00
2023-05-20T09:36:38.593Z,611.00
2023-05-20T09:37:38.649Z,612.00
2023-05-20T09:38:38.712Z,612.00
2023-05-20T09:39:38.753Z,615.00
2023-05-20T09:40:38.833Z,616.00
2023-05-20T09:41:38.884Z,617.00
2023-05-20T09:42:38.921Z,616.00
2023-05-20T09:43:38.963Z,617.00
2023-05-20T09:44:39.019Z,616.00
2023-05-20T09:45:39.081Z,614.00
2023-05-20T09:46:39.176Z,614.00
2023-05-20T09:47:39.253Z,612.00
2023-05-20T09:48:39.237Z,612.00
2023-05-20T09:49:39.283Z,609.00
2023-05-20T09:50:39.339Z,610.00
2023-05-20T09:51:39.365Z,614.00
2023-05-20T09:52:39.426Z,613.00
2023-05-20T09:53:39.437Z,613.00
2023-05-20T09:54:39.474Z,618.00
2023-05-20T09:55:39.550Z,615.00
2023-05-20T09:56:39.580Z,619.00
2023-05-20T09:57:39.628Z,616.00
2023-05-20T09:58:39.659Z,615.00
2023-05-20T09:59:39.706Z,611.00
2023-05-20T10:00:39.740Z,613.00
2023-05-20T10:01:39.881Z,615.00
2023-05-20T10:02:39.927Z,612.00
2023-05-20T10:03:41.255Z,612.00
2023-05-20T10:04:39.913Z,611.00
2023-05-20T10:05:39.929Z,611.00
2023-05-20T10:06:39.931Z,617.00
2023-05-20T10:07:42.142Z,615.00
2023-05-20T10:08:40.069Z,616.00
2023-05-20T10:09:40.138Z,617.00
2023-05-20T10:10:40.235Z,618.00
2023-05-20T10:11:40.982Z,618.00
2023-05-20T10:12:40.390Z,619.00
2023-05-20T10:13:40.432Z,621.00
2023-05-20T10:14:42.093Z,618.00
2023-05-20T10:15:40.578Z,620.00
2023-05-20T10:16:40.606Z,617.00
2023-05-20T10:17:40.751Z,614.00
2023-05-20T10:18:41.645Z,614.00
2023-05-20T10:19:40.823Z,611.00
2023-05-20T10:20:40.796Z,613.00
2023-05-20T10:21:40.845Z,613.00
2023-05-20T10:22:40.924Z,616.00
2023-05-20T10:23:40.967Z,616.00
2023-05-20T10:24:42.085Z,615.00
2023-05-20T10:25:41.034Z,614.00
2023-05-20T10:26:41.088Z,615.00
2023-05-20T10:27:41.146Z,616.00
2023-05-20T10:28:41.569Z,621.00
2023-05-20T10:29:41.258Z,620.00
2023-05-20T10:30:42.539Z,615.00
2023-05-20T10:31:41.317Z,616.00
2023-05-20T10:32:41.423Z,614.00
2023-05-20T10:33:41.387Z,615.00
2023-05-20T10:34:41.357Z,614.00
2023-05-20T10:35:41.380Z,614.00
2023-05-20T10:36:42.665Z,615.00
2023-05-20T10:37:42.426Z,616.00
2023-05-20T10:38:41.441Z,616.00
2023-05-20T10:39:41.432Z,615.00
2023-05-20T10:40:41.445Z,617.00
2023-05-20T10:41:41.460Z,617.00
2023-05-20T10:42:41.480Z,616.00
2023-05-20T10:43:41.478Z,613.00
2023-05-20T10:44:41.486Z,613.00
2023-05-20T10:45:41.495Z,613.00
2023-05-20T10:47:41.537Z,614.00
2023-05-20T10:48:43.720Z,613.00
2023-05-20T10:49:41.569Z,615.00
2023-05-20T10:50:41.607Z,616.00
2023-05-20T10:51:41.663Z,617.00
2023-05-20T10:52:41.730Z,617.00
2023-05-20T10:53:41.778Z,615.00
2023-05-20T10:54:41.856Z,616.00
2023-05-20T10:55:41.917Z,618.00
2023-05-20T10:56:41.975Z,619.00
2023-05-20T10:57:42.053Z,617.00
2023-05-20T10:58:42.096Z,618.00
2023-05-20T10:59:42.135Z,616.00
2023-05-20T11:00:42.236Z,617.00
2023-05-20T11:01:42.389Z,616.00
2023-05-20T11:02:42.471Z,615.00
2023-05-20T11:03:42.444Z,616.00
2023-05-20T11:04:42.410Z,615.00
2023-05-20T11:05:42.470Z,616.00
2023-05-20T11:06:42.610Z,614.00
2023-05-20T11:07:42.581Z,616.00
2023-05-20T11:08:42.617Z,617.00
2023-05-20T11:09:42.675Z,620.00
2023-05-20T11:10:42.718Z,622.00
2023-05-20T11:11:42.767Z,623.00
2023-05-20T11:12:42.874Z,623.00
2023-05-20T11:13:42.888Z,623.00
2023-05-20T11:14:42.932Z,623.00
2023-05-20T11:15:42.978Z,619.00
2023-05-20T11:16:43.078Z,620.00
2023-05-20T11:17:45.070Z,626.00
2023-05-20T11:18:43.232Z,623.00
2023-05-20T11:19:43.202Z,620.00
2023-05-20T11:20:43.267Z,618.00
2023-05-20T11:21:43.330Z,614.00
2023-05-20T11:22:44.017Z,614.00
2023-05-20T11:23:43.398Z,615.00
2023-05-20T11:24:43.455Z,615.00
2023-05-20T11:25:43.516Z,619.00
2023-05-20T11:26:44.662Z,620.00
2023-05-20T11:27:43.638Z,620.00
2023-05-20T11:28:43.653Z,621.00
2023-05-20T11:29:43.692Z,618.00
2023-05-20T11:30:43.786Z,619.00
2023-05-20T11:31:43.835Z,619.00
2023-05-20T11:32:46.592Z,620.00
2023-05-20T11:33:43.845Z,619.00
2023-05-20T11:34:43.856Z,615.00
2023-05-20T11:35:43.871Z,615.00
2023-05-20T11:36:43.914Z,614.00
2023-05-20T11:37:43.914Z,615.00
2023-05-20T11:38:43.935Z,616.00
2023-05-20T11:39:43.968Z,618.00
2023-05-20T11:40:50.629Z,619.00
2023-05-20T11:41:44.997Z,621.00
2023-05-20T11:42:43.992Z,619.00
2023-05-20T11:43:44.004Z,616.00
2023-05-20T11:44:44.014Z,615.00
2023-05-20T11:45:44.108Z,613.00
2023-05-20T11:46:44.217Z,613.00
2023-05-20T11:47:46.205Z,615.00
2023-05-20T11:48:44.087Z,616.00
2023-05-20T11:49:44.086Z,618.00
2023-05-20T11:50:44.120Z,618.00
2023-05-20T11:51:44.111Z,619.00
2023-05-20T11:52:44.146Z,619.00
2023-05-20T11:53:44.196Z,617.00
2023-05-20T11:54:44.240Z,619.00
2023-05-20T11:55:44.291Z,619.00
2023-05-20T11:56:44.353Z,617.00
2023-05-20T11:57:44.390Z,616.00
2023-05-20T11:58:44.485Z,619.00
2023-05-20T11:59:44.487Z,619.00
2023-05-20T12:01:45.571Z,621.00
2023-05-20T12:02:44.596Z,623.00
2023-05-20T12:03:44.718Z,623.00
2023-05-20T12:04:44.620Z,622.00
2023-05-20T12:05:44.574Z,619.00
2023-05-20T12:06:46.537Z,616.00
2023-05-20T12:07:44.601Z,615.00
2023-05-20T12:08:44.621Z,615.00
2023-05-20T12:09:44.640Z,614.00
2023-05-20T12:10:44.662Z,615.00
2023-05-20T12:11:44.739Z,612.00
2023-05-20T12:12:44.712Z,612.00
2023-05-20T12:13:44.717Z,614.00
2023-05-20T12:14:44.741Z,613.00
2023-05-20T12:15:44.819Z,610.00
2023-05-20T12:16:44.832Z,611.00
2023-05-20T12:17:44.919Z,610.00
2023-05-20T12:18:44.997Z,612.00
2023-05-20T12:19:45.118Z,612.00
2023-05-20T12:20:45.045Z,611.00
2023-05-20T12:21:45.088Z,611.00
2023-05-20T12:22:45.144Z,611.00
2023-05-20T12:23:45.202Z,613.00
2023-05-20T12:24:46.232Z,614.00
2023-05-20T12:25:45.272Z,612.00
2023-05-20T12:26:45.329Z,609.00
2023-05-20T12:27:45.388Z,604.00
2023-05-20T12:28:45.468Z,605.00
2023-05-20T12:29:45.490Z,607.00
2023-05-20T12:30:46.191Z,609.00